sensor_id;sensor_type;location;lat;lon;timestamp;temperature;humidity
7600;DHT22;3841;49.442;11.126;2022-08-01T00:00:10;17.80;99.90
7600;DHT22;3841;49.442;11.126;2022-08-01T00:02:37;17.80;99.90
7600;DHT22;3841;49.442;11.126;2022-08-01T00:05:04;17.70;99.90
7600;DHT22;3841;49.442;11.126;2022-08-01T00:07:31;17.70;99.90
7600;DHT22;3841;49.442;11.126;2022-08-01T00:09:58;17.70;99.90
7600;DHT22;3841;49.442;11.126;2022-08-01T00:12:25;17.60;99.90
7600;DHT22;3841;49.442;11.126;2022-08-01T00:14:51;17.60;99.90
7600;DHT22;3841;49.442;11.126;2022-08-01T00:17:19;17.40;99.90
7600;DHT22;3841;49.442;11.126;2022-08-01T00:19:46;17.30;99.90
7600;DHT22;3841;49.442;11.126;2022-08-01T00:22:12;17.30;99.90
7600;DHT22;3841;49.442;11.126;2022-08-01T00:24:39;17.20;99.90
7600;DHT22;3841;49.442;11.126;2022-08-01T00:27:06;17.20;99.90
7600;DHT22;3841;49.442;11.126;2022-08-01T00:29:32;17.20;99.90
7600;DHT22;3841;49.442;11.126;2022-08-01T00:31:59;17.20;99.90
7600;DHT22;3841;49.442;11.126;2022-08-01T00:34:27;17.20;99.90
7600;DHT22;3841;49.442;11.126;2022-08-01T00:36:53;17.30;99.90
7600;DHT22;3841;49.442;11.126;2022-08-01T00:39:20;17.30;99.90
7600;DHT22;3841;49.442;11.126;2022-08-01T00:41:47;17.20;99.90
7600;DHT22;3841;49.442;11.126;2022-08-01T00:44:13;17.20;99.90
7600;DHT22;3841;49.442;11.126;2022-08-01T00:46:40;17.10;99.90
7600;DHT22;3841;49.442;11.126;2022-08-01T00:49:06;17.20;99.90
7600;DHT22;3841;49.442;11.126;2022-08-01T00:51:35;17.20;99.90
7600;DHT22;3841;49.442;11.126;2022-08-01T00:54:01;17.10;99.90
7600;DHT22;3841;49.442;11.126;2022-08-01T00:56:28;17.00;99.90
7600;DHT22;3841;49.442;11.126;2022-08-01T00:58:54;16.90;99.90
7600;DHT22;3841;49.442;11.126;2022-08-01T01:01:21;16.90;99.90
7600;DHT22;3841;49.442;11.126;2022-08-01T01:03:48;16.90;99.90
7600;DHT22;3841;49.442;11.126;2022-08-01T01:06:20;16.90;99.90
7600;DHT22;3841;49.442;11.126;2022-08-01T01:08:53;16.90;99.90
7600;DHT22;3841;49.442;11.126;2022-08-01T01:11:21;16.80;99.90
7600;DHT22;3841;49.442;11.126;2022-08-01T01:13:52;16.70;99.90
7600;DHT22;3841;49.442;11.126;2022-08-01T01:16:20;16.70;99.90
7600;DHT22;3841;49.442;11.126;2022-08-01T01:18:47;16.70;99.90
7600;DHT22;3841;49.442;11.126;2022-08-01T01:24:14;16.80;99.90
7600;DHT22;3841;49.442;11.126;2022-08-01T01:26:45;16.70;99.90
7600;DHT22;3841;49.442;11.126;2022-08-01T01:29:17;16.60;99.90
7600;DHT22;3841;49.442;11.126;2022-08-01T01:31:48;16.60;99.90
7600;DHT22;3841;49.442;11.126;2022-08-01T01:34:17;16.60;99.90
7600;DHT22;3841;49.442;11.126;2022-08-01T01:36:44;16.60;99.90
7600;DHT22;3841;49.442;11.126;2022-08-01T01:39:12;16.60;99.90
7600;DHT22;3841;49.442;11.126;2022-08-01T01:41:40;16.60;99.90
7600;DHT22;3841;49.442;11.126;2022-08-01T01:44:07;16.60;99.90
7600;DHT22;3841;49.442;11.126;2022-08-01T01:46:36;16.70;99.90
7600;DHT22;3841;49.442;11.126;2022-08-01T01:49:03;16.70;99.90
7600;DHT22;3841;49.442;11.126;2022-08-01T01:51:31;16.60;99.90
7600;DHT22;3841;49.442;11.126;2022-08-01T01:53:59;16.60;99.90
7600;DHT22;3841;49.442;11.126;2022-08-01T01:56:25;16.60;99.90
7600;DHT22;3841;49.442;11.126;2022-08-01T01:58:55;16.60;99.90
7600;DHT22;3841;49.442;11.126;2022-08-01T02:01:23;16.60;99.90
7600;DHT22;3841;49.442;11.126;2022-08-01T02:03:51;16.60;99.90
7600;DHT22;3841;49.442;11.126;2022-08-01T02:06:19;16.60;99.90
7600;DHT22;3841;49.442;11.126;2022-08-01T02:08:46;16.60;99.90
7600;DHT22;3841;49.442;11.126;2022-08-01T02:11:14;16.60;99.90
7600;DHT22;3841;49.442;11.126;2022-08-01T02:13:50;16.70;99.90
7600;DHT22;3841;49.442;11.126;2022-08-01T02:16:18;16.70;99.90
7600;DHT22;3841;49.442;11.126;2022-08-01T02:18:46;16.70;99.90
7600;DHT22;3841;49.442;11.126;2022-08-01T02:21:14;16.70;99.90
7600;DHT22;3841;49.442;11.126;2022-08-01T02:23:43;16.60;99.90
7600;DHT22;3841;49.442;11.126;2022-08-01T02:26:10;16.70;99.90
7600;DHT22;3841;49.442;11.126;2022-08-01T02:28:41;16.70;99.90
7600;DHT22;3841;49.442;11.126;2022-08-01T02:31:12;16.80;99.90
7600;DHT22;3841;49.442;11.126;2022-08-01T02:33:40;16.80;99.90
7600;DHT22;3841;49.442;11.126;2022-08-01T02:36:08;16.80;99.90
7600;DHT22;3841;49.442;11.126;2022-08-01T02:38:37;16.70;99.90
7600;DHT22;3841;49.442;11.126;2022-08-01T02:41:06;16.80;99.90
7600;DHT22;3841;49.442;11.126;2022-08-01T02:43:33;16.80;99.90
7600;DHT22;3841;49.442;11.126;2022-08-01T02:46:02;16.70;99.90
7600;DHT22;3841;49.442;11.126;2022-08-01T02:48:30;16.80;99.90
7600;DHT22;3841;49.442;11.126;2022-08-01T02:51:00;16.70;99.90
7600;DHT22;3841;49.442;11.126;2022-08-01T02:53:27;16.60;99.90
7600;DHT22;3841;49.442;11.126;2022-08-01T02:55:58;16.50;99.90
7600;DHT22;3841;49.442;11.126;2022-08-01T02:58:25;16.50;99.90
7600;DHT22;3841;49.442;11.126;2022-08-01T03:00:52;16.40;99.90
7600;DHT22;3841;49.442;11.126;2022-08-01T03:03:19;16.40;99.90
7600;DHT22;3841;49.442;11.126;2022-08-01T03:05:46;16.40;99.90
7600;DHT22;3841;49.442;11.126;2022-08-01T03:08:15;16.40;99.90
7600;DHT22;3841;49.442;11.126;2022-08-01T03:10:43;16.40;99.90
7600;DHT22;3841;49.442;11.126;2022-08-01T03:13:12;16.30;99.90
7600;DHT22;3841;49.442;11.126;2022-08-01T03:15:40;16.20;99.90
7600;DHT22;3841;49.442;11.126;2022-08-01T03:18:08;16.20;99.90
7600;DHT22;3841;49.442;11.126;2022-08-01T03:20:35;16.10;99.90
7600;DHT22;3841;49.442;11.126;2022-08-01T03:23:03;16.00;99.90
7600;DHT22;3841;49.442;11.126;2022-08-01T03:25:30;16.00;99.90
7600;DHT22;3841;49.442;11.126;2022-08-01T03:27:59;16.00;99.90
7600;DHT22;3841;49.442;11.126;2022-08-01T03:30:27;16.00;99.90
7600;DHT22;3841;49.442;11.126;2022-08-01T03:32:55;16.00;99.90
7600;DHT22;3841;49.442;11.126;2022-08-01T03:35:23;16.00;99.90
7600;DHT22;3841;49.442;11.126;2022-08-01T03:37:52;15.90;99.90
7600;DHT22;3841;49.442;11.126;2022-08-01T03:40:20;15.90;99.90
7600;DHT22;3841;49.442;11.126;2022-08-01T03:42:47;15.80;99.90
7600;DHT22;3841;49.442;11.126;2022-08-01T03:45:15;15.80;99.90
7600;DHT22;3841;49.442;11.126;2022-08-01T03:47:46;15.70;99.90
7600;DHT22;3841;49.442;11.126;2022-08-01T03:50:15;15.70;99.90
7600;DHT22;3841;49.442;11.126;2022-08-01T03:52:43;15.80;99.90
7600;DHT22;3841;49.442;11.126;2022-08-01T03:55:11;15.70;99.90
7600;DHT22;3841;49.442;11.126;2022-08-01T03:57:39;15.70;99.90
7600;DHT22;3841;49.442;11.126;2022-08-01T04:00:06;15.70;99.90
7600;DHT22;3841;49.442;11.126;2022-08-01T04:02:34;15.70;99.90
7600;DHT22;3841;49.442;11.126;2022-08-01T04:05:02;15.70;99.90
7600;DHT22;3841;49.442;11.126;2022-08-01T04:07:30;15.70;99.90
7600;DHT22;3841;49.442;11.126;2022-08-01T04:09:56;15.70;99.90
7600;DHT22;3841;49.442;11.126;2022-08-01T04:12:23;15.70;99.90
7600;DHT22;3841;49.442;11.126;2022-08-01T04:14:50;15.80;99.90
7600;DHT22;3841;49.442;11.126;2022-08-01T04:17:17;15.80;99.90
7600;DHT22;3841;49.442;11.126;2022-08-01T04:19:43;15.90;99.90
7600;DHT22;3841;49.442;11.126;2022-08-01T04:22:13;16.00;99.90
7600;DHT22;3841;49.442;11.126;2022-08-01T04:24:41;16.10;99.90
7600;DHT22;3841;49.442;11.126;2022-08-01T04:27:09;16.20;99.90
7600;DHT22;3841;49.442;11.126;2022-08-01T04:29:38;16.30;99.90
7600;DHT22;3841;49.442;11.126;2022-08-01T04:32:05;16.40;99.90
7600;DHT22;3841;49.442;11.126;2022-08-01T04:34:33;16.40;99.90
7600;DHT22;3841;49.442;11.126;2022-08-01T04:37:00;16.50;99.90
7600;DHT22;3841;49.442;11.126;2022-08-01T04:39:28;16.60;99.90
7600;DHT22;3841;49.442;11.126;2022-08-01T04:41:56;16.60;99.90
7600;DHT22;3841;49.442;11.126;2022-08-01T04:44:24;16.70;99.90
7600;DHT22;3841;49.442;11.126;2022-08-01T04:46:52;16.80;99.90
7600;DHT22;3841;49.442;11.126;2022-08-01T04:49:20;16.90;99.90
7600;DHT22;3841;49.442;11.126;2022-08-01T04:51:50;16.90;99.90
7600;DHT22;3841;49.442;11.126;2022-08-01T04:54:17;17.00;99.90
7600;DHT22;3841;49.442;11.126;2022-08-01T04:56:45;17.00;99.90
7600;DHT22;3841;49.442;11.126;2022-08-01T04:59:12;17.20;99.90
7600;DHT22;3841;49.442;11.126;2022-08-01T05:01:56;17.20;99.90
7600;DHT22;3841;49.442;11.126;2022-08-01T05:04:22;17.30;99.90
7600;DHT22;3841;49.442;11.126;2022-08-01T05:06:49;17.40;99.90
7600;DHT22;3841;49.442;11.126;2022-08-01T05:09:15;17.40;99.90
7600;DHT22;3841;49.442;11.126;2022-08-01T05:11:42;17.50;99.90
7600;DHT22;3841;49.442;11.126;2022-08-01T05:14:10;17.60;99.90
7600;DHT22;3841;49.442;11.126;2022-08-01T05:16:37;17.60;99.90
7600;DHT22;3841;49.442;11.126;2022-08-01T05:19:03;17.60;99.90
7600;DHT22;3841;49.442;11.126;2022-08-01T05:21:30;17.70;99.90
7600;DHT22;3841;49.442;11.126;2022-08-01T05:23:56;17.70;99.90
7600;DHT22;3841;49.442;11.126;2022-08-01T05:26:23;17.80;99.90
7600;DHT22;3841;49.442;11.126;2022-08-01T05:28:50;17.80;99.90
7600;DHT22;3841;49.442;11.126;2022-08-01T05:31:18;17.90;99.90
7600;DHT22;3841;49.442;11.126;2022-08-01T05:33:44;18.00;99.90
7600;DHT22;3841;49.442;11.126;2022-08-01T05:36:11;18.20;99.90
7600;DHT22;3841;49.442;11.126;2022-08-01T05:38:37;18.40;99.90
7600;DHT22;3841;49.442;11.126;2022-08-01T05:41:04;18.60;99.90
7600;DHT22;3841;49.442;11.126;2022-08-01T05:43:31;18.70;99.90
7600;DHT22;3841;49.442;11.126;2022-08-01T05:45:58;18.80;99.90
7600;DHT22;3841;49.442;11.126;2022-08-01T05:48:26;19.00;99.90
7600;DHT22;3841;49.442;11.126;2022-08-01T05:50:52;19.00;99.90
7600;DHT22;3841;49.442;11.126;2022-08-01T05:53:19;19.20;99.90
7600;DHT22;3841;49.442;11.126;2022-08-01T05:55:46;19.30;99.90
7600;DHT22;3841;49.442;11.126;2022-08-01T05:58:12;19.40;99.90
7600;DHT22;3841;49.442;11.126;2022-08-01T06:00:39;19.60;99.90
7600;DHT22;3841;49.442;11.126;2022-08-01T06:03:05;20.00;99.90
7600;DHT22;3841;49.442;11.126;2022-08-01T06:05:33;20.40;99.90
7600;DHT22;3841;49.442;11.126;2022-08-01T06:08:00;20.50;99.90
7600;DHT22;3841;49.442;11.126;2022-08-01T06:10:27;20.60;99.90
7600;DHT22;3841;49.442;11.126;2022-08-01T06:12:53;20.70;99.90
7600;DHT22;3841;49.442;11.126;2022-08-01T06:15:20;20.80;99.90
7600;DHT22;3841;49.442;11.126;2022-08-01T06:17:46;21.00;99.90
7600;DHT22;3841;49.442;11.126;2022-08-01T06:20:13;21.10;99.90
7600;DHT22;3841;49.442;11.126;2022-08-01T06:22:41;21.30;99.90
7600;DHT22;3841;49.442;11.126;2022-08-01T06:25:08;21.60;99.90
7600;DHT22;3841;49.442;11.126;2022-08-01T06:27:35;21.70;99.90
7600;DHT22;3841;49.442;11.126;2022-08-01T06:30:02;21.80;99.90
7600;DHT22;3841;49.442;11.126;2022-08-01T06:32:29;22.30;99.90
7600;DHT22;3841;49.442;11.126;2022-08-01T06:34:56;22.60;99.90
7600;DHT22;3841;49.442;11.126;2022-08-01T06:37:23;22.90;99.90
7600;DHT22;3841;49.442;11.126;2022-08-01T06:39:51;22.90;99.90
7600;DHT22;3841;49.442;11.126;2022-08-01T06:42:18;23.20;99.90
7600;DHT22;3841;49.442;11.126;2022-08-01T06:44:44;23.00;99.90
7600;DHT22;3841;49.442;11.126;2022-08-01T06:47:12;22.80;99.90
7600;DHT22;3841;49.442;11.126;2022-08-01T06:49:39;22.70;99.90
7600;DHT22;3841;49.442;11.126;2022-08-01T06:52:05;22.60;99.90
7600;DHT22;3841;49.442;11.126;2022-08-01T06:54:32;22.60;99.90
7600;DHT22;3841;49.442;11.126;2022-08-01T06:57:00;22.60;99.90
7600;DHT22;3841;49.442;11.126;2022-08-01T06:59:27;22.50;99.90
7600;DHT22;3841;49.442;11.126;2022-08-01T07:01:53;22.30;99.90
7600;DHT22;3841;49.442;11.126;2022-08-01T07:04:20;22.20;99.90
7600;DHT22;3841;49.442;11.126;2022-08-01T07:06:48;22.20;99.90
7600;DHT22;3841;49.442;11.126;2022-08-01T07:09:14;22.10;99.90
7600;DHT22;3841;49.442;11.126;2022-08-01T07:11:41;22.10;99.90
7600;DHT22;3841;49.442;11.126;2022-08-01T07:14:09;22.10;99.90
7600;DHT22;3841;49.442;11.126;2022-08-01T07:16:36;22.10;99.90
7600;DHT22;3841;49.442;11.126;2022-08-01T07:19:02;22.10;99.90
7600;DHT22;3841;49.442;11.126;2022-08-01T07:21:29;22.20;99.90
7600;DHT22;3841;49.442;11.126;2022-08-01T07:23:55;22.30;99.90
7600;DHT22;3841;49.442;11.126;2022-08-01T07:26:22;22.40;99.90
7600;DHT22;3841;49.442;11.126;2022-08-01T07:28:49;22.40;99.90
7600;DHT22;3841;49.442;11.126;2022-08-01T07:31:17;22.60;99.90
7600;DHT22;3841;49.442;11.126;2022-08-01T07:33:43;22.90;99.90
7600;DHT22;3841;49.442;11.126;2022-08-01T07:36:10;23.00;99.90
7600;DHT22;3841;49.442;11.126;2022-08-01T07:38:37;23.20;99.90
7600;DHT22;3841;49.442;11.126;2022-08-01T07:41:03;23.50;99.90
7600;DHT22;3841;49.442;11.126;2022-08-01T07:43:30;23.80;99.90
7600;DHT22;3841;49.442;11.126;2022-08-01T07:45:56;24.10;99.90
7600;DHT22;3841;49.442;11.126;2022-08-01T07:48:24;24.20;99.90
7600;DHT22;3841;49.442;11.126;2022-08-01T07:50:52;24.50;99.90
7600;DHT22;3841;49.442;11.126;2022-08-01T07:53:18;24.60;99.90
7600;DHT22;3841;49.442;11.126;2022-08-01T07:55:45;24.90;99.90
7600;DHT22;3841;49.442;11.126;2022-08-01T07:58:12;25.00;99.90
7600;DHT22;3841;49.442;11.126;2022-08-01T08:00:38;25.70;99.90
7600;DHT22;3841;49.442;11.126;2022-08-01T08:03:05;25.70;99.90
7600;DHT22;3841;49.442;11.126;2022-08-01T08:05:36;25.60;99.90
7600;DHT22;3841;49.442;11.126;2022-08-01T08:08:04;25.80;99.90
7600;DHT22;3841;49.442;11.126;2022-08-01T08:10:30;25.50;99.90
7600;DHT22;3841;49.442;11.126;2022-08-01T08:12:57;25.30;99.90
7600;DHT22;3841;49.442;11.126;2022-08-01T08:15:24;25.10;99.90
7600;DHT22;3841;49.442;11.126;2022-08-01T08:17:50;25.00;99.90
7600;DHT22;3841;49.442;11.126;2022-08-01T08:20:17;24.70;99.90
7600;DHT22;3841;49.442;11.126;2022-08-01T08:22:45;24.40;99.90
7600;DHT22;3841;49.442;11.126;2022-08-01T08:25:12;24.00;99.90
7600;DHT22;3841;49.442;11.126;2022-08-01T08:27:38;23.90;99.90
7600;DHT22;3841;49.442;11.126;2022-08-01T08:30:05;24.00;99.90
7600;DHT22;3841;49.442;11.126;2022-08-01T08:32:33;24.00;99.90
7600;DHT22;3841;49.442;11.126;2022-08-01T08:35:00;24.10;99.90
7600;DHT22;3841;49.442;11.126;2022-08-01T08:37:27;24.40;99.90
7600;DHT22;3841;49.442;11.126;2022-08-01T08:39:55;24.50;99.90
7600;DHT22;3841;49.442;11.126;2022-08-01T08:42:22;24.40;99.90
7600;DHT22;3841;49.442;11.126;2022-08-01T08:44:48;24.40;99.90
7600;DHT22;3841;49.442;11.126;2022-08-01T08:47:15;24.60;99.90
7600;DHT22;3841;49.442;11.126;2022-08-01T08:49:43;24.80;99.90
7600;DHT22;3841;49.442;11.126;2022-08-01T08:52:10;24.80;99.90
7600;DHT22;3841;49.442;11.126;2022-08-01T08:54:43;24.90;99.90
7600;DHT22;3841;49.442;11.126;2022-08-01T08:57:12;24.90;99.90
7600;DHT22;3841;49.442;11.126;2022-08-01T08:59:40;24.80;99.90
7600;DHT22;3841;49.442;11.126;2022-08-01T09:02:07;24.50;99.90
7600;DHT22;3841;49.442;11.126;2022-08-01T09:04:35;24.40;99.90
7600;DHT22;3841;49.442;11.126;2022-08-01T09:07:03;24.30;99.90
7600;DHT22;3841;49.442;11.126;2022-08-01T09:09:32;24.30;99.90
7600;DHT22;3841;49.442;11.126;2022-08-01T09:12:00;24.50;99.90
7600;DHT22;3841;49.442;11.126;2022-08-01T09:14:28;24.70;99.90
7600;DHT22;3841;49.442;11.126;2022-08-01T09:17:00;24.80;99.90
7600;DHT22;3841;49.442;11.126;2022-08-01T09:19:27;25.00;99.90
7600;DHT22;3841;49.442;11.126;2022-08-01T09:22:00;25.30;99.90
7600;DHT22;3841;49.442;11.126;2022-08-01T09:24:29;25.50;99.90
7600;DHT22;3841;49.442;11.126;2022-08-01T09:26:56;25.60;99.90
7600;DHT22;3841;49.442;11.126;2022-08-01T09:29:23;25.60;99.90
7600;DHT22;3841;49.442;11.126;2022-08-01T09:31:52;25.70;99.90
7600;DHT22;3841;49.442;11.126;2022-08-01T09:34:23;25.60;99.90
7600;DHT22;3841;49.442;11.126;2022-08-01T09:36:51;25.60;99.90
7600;DHT22;3841;49.442;11.126;2022-08-01T09:39:19;25.60;99.90
7600;DHT22;3841;49.442;11.126;2022-08-01T09:41:47;25.50;99.90
7600;DHT22;3841;49.442;11.126;2022-08-01T09:44:14;25.60;99.90
7600;DHT22;3841;49.442;11.126;2022-08-01T09:46:49;25.70;99.90
7600;DHT22;3841;49.442;11.126;2022-08-01T09:49:25;25.80;99.90
7600;DHT22;3841;49.442;11.126;2022-08-01T09:51:57;25.80;99.90
7600;DHT22;3841;49.442;11.126;2022-08-01T09:54:31;25.40;99.90
7600;DHT22;3841;49.442;11.126;2022-08-01T09:57:09;25.30;99.90
7600;DHT22;3841;49.442;11.126;2022-08-01T09:59:35;25.20;99.90
7600;DHT22;3841;49.442;11.126;2022-08-01T10:02:04;25.20;99.90
7600;DHT22;3841;49.442;11.126;2022-08-01T10:04:32;25.20;99.90
7600;DHT22;3841;49.442;11.126;2022-08-01T10:07:03;25.10;99.90
7600;DHT22;3841;49.442;11.126;2022-08-01T10:09:40;25.10;99.90
7600;DHT22;3841;49.442;11.126;2022-08-01T10:12:07;25.20;99.90
7600;DHT22;3841;49.442;11.126;2022-08-01T10:14:38;25.30;99.90
7600;DHT22;3841;49.442;11.126;2022-08-01T10:17:06;25.40;99.90
7600;DHT22;3841;49.442;11.126;2022-08-01T10:19:35;25.30;99.90
7600;DHT22;3841;49.442;11.126;2022-08-01T10:22:04;25.30;99.90
7600;DHT22;3841;49.442;11.126;2022-08-01T10:24:31;25.30;99.90
7600;DHT22;3841;49.442;11.126;2022-08-01T10:27:00;25.20;99.90
7600;DHT22;3841;49.442;11.126;2022-08-01T10:29:30;25.10;99.90
7600;DHT22;3841;49.442;11.126;2022-08-01T10:31:58;25.20;99.90
7600;DHT22;3841;49.442;11.126;2022-08-01T10:34:25;25.40;99.90
7600;DHT22;3841;49.442;11.126;2022-08-01T10:36:55;25.70;99.90
7600;DHT22;3841;49.442;11.126;2022-08-01T10:39:22;25.70;99.90
7600;DHT22;3841;49.442;11.126;2022-08-01T10:41:53;25.70;99.90
7600;DHT22;3841;49.442;11.126;2022-08-01T10:44:24;25.70;99.90
7600;DHT22;3841;49.442;11.126;2022-08-01T10:46:57;25.70;99.90
7600;DHT22;3841;49.442;11.126;2022-08-01T10:49:26;25.60;99.90
7600;DHT22;3841;49.442;11.126;2022-08-01T10:51:55;25.50;99.90
7600;DHT22;3841;49.442;11.126;2022-08-01T10:54:23;25.60;99.90
7600;DHT22;3841;49.442;11.126;2022-08-01T10:56:51;25.80;99.90
7600;DHT22;3841;49.442;11.126;2022-08-01T10:59:20;26.00;99.90
7600;DHT22;3841;49.442;11.126;2022-08-01T11:01:55;26.00;99.90
7600;DHT22;3841;49.442;11.126;2022-08-01T11:04:24;25.50;99.90
7600;DHT22;3841;49.442;11.126;2022-08-01T11:07:05;25.50;99.90
7600;DHT22;3841;49.442;11.126;2022-08-01T11:09:39;25.70;99.90
7600;DHT22;3841;49.442;11.126;2022-08-01T11:12:08;25.90;99.90
7600;DHT22;3841;49.442;11.126;2022-08-01T11:17:30;25.80;99.90
7600;DHT22;3841;49.442;11.126;2022-08-01T11:20:04;25.90;99.90
7600;DHT22;3841;49.442;11.126;2022-08-01T11:22:32;26.10;99.90
7600;DHT22;3841;49.442;11.126;2022-08-01T11:25:19;26.30;99.90
7600;DHT22;3841;49.442;11.126;2022-08-01T11:27:45;26.40;99.90
7600;DHT22;3841;49.442;11.126;2022-08-01T11:30:22;26.60;99.90
7600;DHT22;3841;49.442;11.126;2022-08-01T11:32:51;26.70;99.90
7600;DHT22;3841;49.442;11.126;2022-08-01T11:35:18;26.90;99.90
7600;DHT22;3841;49.442;11.126;2022-08-01T11:37:47;27.20;99.90
7600;DHT22;3841;49.442;11.126;2022-08-01T11:40:14;27.30;99.70
7600;DHT22;3841;49.442;11.126;2022-08-01T11:42:41;27.20;99.90
7600;DHT22;3841;49.442;11.126;2022-08-01T11:45:08;27.00;99.90
7600;DHT22;3841;49.442;11.126;2022-08-01T11:47:45;27.00;99.90
7600;DHT22;3841;49.442;11.126;2022-08-01T11:50:31;27.00;99.90
7600;DHT22;3841;49.442;11.126;2022-08-01T11:52:59;26.90;99.90
7600;DHT22;3841;49.442;11.126;2022-08-01T11:55:27;26.80;99.60
7600;DHT22;3841;49.442;11.126;2022-08-01T11:57:58;26.80;99.70
7600;DHT22;3841;49.442;11.126;2022-08-01T12:00:25;26.80;99.50
7600;DHT22;3841;49.442;11.126;2022-08-01T12:02:56;26.70;99.80
7600;DHT22;3841;49.442;11.126;2022-08-01T12:05:23;26.70;98.80
7600;DHT22;3841;49.442;11.126;2022-08-01T12:07:52;26.70;98.60
7600;DHT22;3841;49.442;11.126;2022-08-01T12:10:20;26.70;99.10
7600;DHT22;3841;49.442;11.126;2022-08-01T12:12:48;26.90;98.30
7600;DHT22;3841;49.442;11.126;2022-08-01T12:15:22;26.80;98.60
7600;DHT22;3841;49.442;11.126;2022-08-01T12:17:50;26.70;99.00
7600;DHT22;3841;49.442;11.126;2022-08-01T12:23:07;26.90;98.60
7600;DHT22;3841;49.442;11.126;2022-08-01T12:46:24;25.50;99.90
7600;DHT22;3841;49.442;11.126;2022-08-01T12:49:12;25.60;99.90
7600;DHT22;3841;49.442;11.126;2022-08-01T12:55:00;26.20;99.90
7600;DHT22;3841;49.442;11.126;2022-08-01T12:57:42;26.30;99.90
7600;DHT22;3841;49.442;11.126;2022-08-01T13:00:24;26.60;99.90
7600;DHT22;3841;49.442;11.126;2022-08-01T13:11:44;26.70;99.90
7600;DHT22;3841;49.442;11.126;2022-08-01T13:14:25;26.80;99.90
7600;DHT22;3841;49.442;11.126;2022-08-01T13:16:52;27.20;99.00
7600;DHT22;3841;49.442;11.126;2022-08-01T13:19:19;27.30;96.30
7600;DHT22;3841;49.442;11.126;2022-08-01T13:21:55;27.10;95.20
7600;DHT22;3841;49.442;11.126;2022-08-01T13:24:23;26.90;94.90
7600;DHT22;3841;49.442;11.126;2022-08-01T13:26:51;26.80;97.90
7600;DHT22;3841;49.442;11.126;2022-08-01T13:29:18;26.60;99.70
7600;DHT22;3841;49.442;11.126;2022-08-01T13:31:46;26.30;99.20
7600;DHT22;3841;49.442;11.126;2022-08-01T13:34:12;26.00;99.90
7600;DHT22;3841;49.442;11.126;2022-08-01T13:36:39;25.70;99.90
7600;DHT22;3841;49.442;11.126;2022-08-01T13:39:07;25.60;99.90
7600;DHT22;3841;49.442;11.126;2022-08-01T13:41:53;25.60;99.90
7600;DHT22;3841;49.442;11.126;2022-08-01T13:44:20;25.60;99.90
7600;DHT22;3841;49.442;11.126;2022-08-01T13:46:46;25.70;99.90
7600;DHT22;3841;49.442;11.126;2022-08-01T13:49:13;25.80;99.90
7600;DHT22;3841;49.442;11.126;2022-08-01T13:51:40;25.90;99.90
7600;DHT22;3841;49.442;11.126;2022-08-01T13:54:07;26.10;99.60
7600;DHT22;3841;49.442;11.126;2022-08-01T13:56:34;26.10;99.50
7600;DHT22;3841;49.442;11.126;2022-08-01T13:59:02;26.10;99.40
7600;DHT22;3841;49.442;11.126;2022-08-01T14:01:31;26.10;99.30
7600;DHT22;3841;49.442;11.126;2022-08-01T14:03:58;26.20;99.40
7600;DHT22;3841;49.442;11.126;2022-08-01T14:06:25;26.50;98.90
7600;DHT22;3841;49.442;11.126;2022-08-01T14:08:52;26.60;98.90
7600;DHT22;3841;49.442;11.126;2022-08-01T14:11:18;26.50;98.90
7600;DHT22;3841;49.442;11.126;2022-08-01T14:13:50;26.50;99.10
7600;DHT22;3841;49.442;11.126;2022-08-01T15:35:00;27.80;90.40
7600;DHT22;3841;49.442;11.126;2022-08-01T15:37:27;27.90;89.80
7600;DHT22;3841;49.442;11.126;2022-08-01T15:39:54;27.80;90.00
7600;DHT22;3841;49.442;11.126;2022-08-01T15:42:26;27.60;89.80
7600;DHT22;3841;49.442;11.126;2022-08-01T15:44:58;27.30;90.00
7600;DHT22;3841;49.442;11.126;2022-08-01T15:47:24;27.10;89.90
7600;DHT22;3841;49.442;11.126;2022-08-01T15:49:51;26.90;89.50
7600;DHT22;3841;49.442;11.126;2022-08-01T15:52:19;26.60;89.60
7600;DHT22;3841;49.442;11.126;2022-08-01T15:54:46;26.50;90.40
7600;DHT22;3841;49.442;11.126;2022-08-01T15:57:12;26.40;90.80
7600;DHT22;3841;49.442;11.126;2022-08-01T15:59:46;26.40;90.90
7600;DHT22;3841;49.442;11.126;2022-08-01T16:02:13;26.40;91.20
7600;DHT22;3841;49.442;11.126;2022-08-01T16:04:54;26.50;91.00
7600;DHT22;3841;49.442;11.126;2022-08-01T17:29:11;25.40;99.50
7600;DHT22;3841;49.442;11.126;2022-08-01T17:31:37;25.40;99.80
7600;DHT22;3841;49.442;11.126;2022-08-01T17:34:04;25.30;99.70
7600;DHT22;3841;49.442;11.126;2022-08-01T17:36:30;25.30;99.80
7600;DHT22;3841;49.442;11.126;2022-08-01T17:38:57;25.20;99.90
7600;DHT22;3841;49.442;11.126;2022-08-01T17:41:24;25.20;99.90
7600;DHT22;3841;49.442;11.126;2022-08-01T17:43:51;25.10;99.90
7600;DHT22;3841;49.442;11.126;2022-08-01T17:46:19;25.10;99.90
7600;DHT22;3841;49.442;11.126;2022-08-01T17:48:45;25.00;99.90
7600;DHT22;3841;49.442;11.126;2022-08-01T17:51:12;24.90;99.90
7600;DHT22;3841;49.442;11.126;2022-08-01T17:53:38;24.90;99.90
7600;DHT22;3841;49.442;11.126;2022-08-01T17:56:05;24.80;99.90
7600;DHT22;3841;49.442;11.126;2022-08-01T17:58:32;24.80;99.90
7600;DHT22;3841;49.442;11.126;2022-08-01T18:00:58;24.70;99.90
7600;DHT22;3841;49.442;11.126;2022-08-01T18:03:28;24.70;99.90
7600;DHT22;3841;49.442;11.126;2022-08-01T18:05:57;24.60;99.90
7600;DHT22;3841;49.442;11.126;2022-08-01T18:08:23;24.60;99.90
7600;DHT22;3841;49.442;11.126;2022-08-01T18:10:51;24.50;99.90
7600;DHT22;3841;49.442;11.126;2022-08-01T18:13:17;24.40;99.90
7600;DHT22;3841;49.442;11.126;2022-08-01T18:15:45;24.40;99.90
7600;DHT22;3841;49.442;11.126;2022-08-01T18:18:12;24.40;99.90
7600;DHT22;3841;49.442;11.126;2022-08-01T18:20:43;24.30;99.90
7600;DHT22;3841;49.442;11.126;2022-08-01T18:23:10;24.30;99.90
7600;DHT22;3841;49.442;11.126;2022-08-01T18:25:37;24.20;99.90
7600;DHT22;3841;49.442;11.126;2022-08-01T18:28:03;24.20;99.90
7600;DHT22;3841;49.442;11.126;2022-08-01T18:30:30;24.10;99.90
7600;DHT22;3841;49.442;11.126;2022-08-01T18:32:57;24.10;99.90
7600;DHT22;3841;49.442;11.126;2022-08-01T18:35:24;24.10;99.90
7600;DHT22;3841;49.442;11.126;2022-08-01T18:37:52;23.90;99.90
7600;DHT22;3841;49.442;11.126;2022-08-01T18:40:19;23.90;99.90
7600;DHT22;3841;49.442;11.126;2022-08-01T18:42:46;23.80;99.90
7600;DHT22;3841;49.442;11.126;2022-08-01T18:45:13;23.70;99.90
7600;DHT22;3841;49.442;11.126;2022-08-01T18:47:40;23.50;99.90
7600;DHT22;3841;49.442;11.126;2022-08-01T18:50:07;23.40;99.90
7600;DHT22;3841;49.442;11.126;2022-08-01T18:52:34;23.30;99.90
7600;DHT22;3841;49.442;11.126;2022-08-01T18:55:03;23.20;99.90
7600;DHT22;3841;49.442;11.126;2022-08-01T18:57:32;23.00;99.90
7600;DHT22;3841;49.442;11.126;2022-08-01T18:59:59;22.90;99.90
7600;DHT22;3841;49.442;11.126;2022-08-01T19:02:25;22.80;99.90
7600;DHT22;3841;49.442;11.126;2022-08-01T19:04:52;22.70;99.90
7600;DHT22;3841;49.442;11.126;2022-08-01T19:07:19;22.60;99.90
7600;DHT22;3841;49.442;11.126;2022-08-01T19:09:46;22.50;99.90
7600;DHT22;3841;49.442;11.126;2022-08-01T19:12:14;22.40;99.90